Time;durP1;ratioP1;P1;durP2;ratioP2;P2;SDS_P1;SDS_P2;PMS_P1;PMS_P2;Temp;Humidity;BMP_temperature;BMP_pressure;BME280_temperature;BME280_humidity;BME280_pressure;Samples;Min_cycle;Max_cycle;Signal;HPM_P1;HPM_P2
2022/06/10 00:00:46;;;;;;;6.45;3.03;;;;;;;;;;2078589;28;20418;-66
2022/06/10 00:02:06;;;;;;;4.07;3.00;;;;;;;;;;2082089;28;20053;-65
2022/06/10 00:03:25;;;;;;;3.92;3.22;;;;;;;;;;2083081;28;20045;-66
2022/06/10 00:04:44;;;;;;;3.10;2.80;;;;;;;;;;2084195;28;20075;-65
2022/06/10 00:06:05;;;;;;;4.45;2.38;;;;;;;;;;2085039;28;20147;-66
2022/06/10 00:07:25;;;;;;;2.70;2.50;;;;;;;;;;2084010;28;20061;-65
2022/06/10 00:08:45;;;;;;;5.25;2.45;;;;;;;;;;2084183;28;20061;-66
2022/06/10 00:10:04;;;;;;;2.90;2.50;;;;;;;;;;2081816;28;20037;-65
2022/06/10 00:11:23;;;;;;;4.75;2.78;;;;;;;;;;2081834;28;20029;-65
2022/06/10 00:12:42;;;;;;;3.17;2.47;;;;;;;;;;2084135;28;20503;-65
2022/06/10 00:14:01;;;;;;;4.50;2.60;;;;;;;;;;2085105;28;20033;-65
2022/06/10 00:15:20;;;;;;;3.58;3.33;;;;;;;;;;2076909;28;20029;-65
2022/06/10 00:16:38;;;;;;;3.78;3.30;;;;;;;;;;2082841;28;20041;-65
2022/06/10 00:17:58;;;;;;;3.40;3.15;;;;;;;;;;2083460;28;20444;-65
2022/06/10 00:19:17;;;;;;;3.42;3.13;;;;;;;;;;2085868;28;20044;-65
2022/06/10 00:20:36;;;;;;;3.88;3.58;;;;;;;;;;2086113;28;20036;-65
2022/06/10 00:21:55;;;;;;;3.88;3.58;;;;;;;;;;2085399;28;20053;-65
2022/06/10 00:23:14;;;;;;;4.43;4.03;;;;;;;;;;2084753;28;20037;-65
2022/06/10 00:24:33;;;;;;;4.65;4.32;;;;;;;;;;2085280;28;20032;-65
2022/06/10 00:25:52;;;;;;;5.47;3.83;;;;;;;;;;2082914;28;20391;-65
2022/06/10 00:27:13;;;;;;;5.10;4.03;;;;;;;;;;2083374;28;20040;-65
2022/06/10 00:28:32;;;;;;;3.95;3.65;;;;;;;;;;2085511;28;20060;-65
2022/06/10 00:29:52;;;;;;;4.80;3.80;;;;;;;;;;2084478;28;20037;-65
2022/06/10 00:31:15;;;;;;;6.10;4.00;;;;;;;;;;2076235;28;20018;-65
2022/06/10 00:32:34;;;;;;;8.98;4.30;;;;;;;;;;2083853;28;20387;-65
2022/06/10 00:33:53;;;;;;;4.78;4.25;;;;;;;;;;2084325;28;20029;-65
2022/06/10 00:35:12;;;;;;;5.80;4.32;;;;;;;;;;2084264;28;20096;-65
2022/06/10 00:36:31;;;;;;;4.55;3.92;;;;;;;;;;2084739;28;20101;-65
2022/06/10 00:37:50;;;;;;;7.72;4.05;;;;;;;;;;2083694;28;20029;-65
2022/06/10 00:39:09;;;;;;;7.10;4.55;;;;;;;;;;2085735;28;20155;-65
2022/06/10 00:40:29;;;;;;;9.25;6.45;;;;;;;;;;2086190;28;20032;-65
2022/06/10 00:41:48;;;;;;;7.45;6.68;;;;;;;;;;2084929;28;20025;-65
2022/06/10 00:43:11;;;;;;;13.13;7.82;;;;;;;;;;2083100;28;20041;-65
2022/06/10 00:44:33;;;;;;;11.38;7.90;;;;;;;;;;2081310;28;20037;-66
2022/06/10 00:45:58;;;;;;;8.13;6.45;;;;;;;;;;2082540;28;20025;-65
2022/06/10 00:47:23;;;;;;;6.03;5.53;;;;;;;;;;2083766;28;20045;-65
2022/06/10 00:49:01;;;;;;;7.07;4.90;;;;;;;;;;2073246;28;20033;-65
2022/06/10 00:50:28;;;;;;;7.38;6.50;;;;;;;;;;2083737;28;20037;-65
2022/06/10 00:51:49;;;;;;;6.80;6.10;;;;;;;;;;2085171;28;20108;-65
2022/06/10 00:53:10;;;;;;;6.22;5.70;;;;;;;;;;2083366;28;20028;-65
2022/06/10 00:54:38;;;;;;;5.78;5.28;;;;;;;;;;2084309;28;20034;-65
2022/06/10 00:55:58;;;;;;;5.75;5.25;;;;;;;;;;2083470;28;20495;-65
2022/06/10 00:57:23;;;;;;;5.82;4.53;;;;;;;;;;2084549;28;20045;-65
2022/06/10 00:58:46;;;;;;;4.95;4.55;;;;;;;;;;2084833;28;20484;-65
2022/06/10 01:00:08;;;;;;;6.72;4.70;;;;;;;;;;2082676;28;20034;-65
2022/06/10 01:01:28;;;;;;;8.95;5.68;;;;;;;;;;2084927;28;20026;-65
2022/06/10 01:02:47;;;;;;;9.20;5.07;;;;;;;;;;2084049;28;20072;-65
2022/06/10 01:04:06;;;;;;;7.15;4.78;;;;;;;;;;2085661;28;20026;-65
2022/06/10 01:05:26;;;;;;;4.88;3.92;;;;;;;;;;2084794;28;20029;-66
2022/06/10 01:06:46;;;;;;;3.88;3.40;;;;;;;;;;2084170;28;20590;-65
2022/06/10 01:08:08;;;;;;;5.30;3.95;;;;;;;;;;2083167;28;20076;-65
2022/06/10 01:09:28;;;;;;;4.80;4.30;;;;;;;;;;2085911;28;20399;-65
2022/06/10 01:11:01;;;;;;;4.47;4.13;;;;;;;;;;2085030;28;20033;-65
2022/06/10 01:12:38;;;;;;;5.80;3.83;;;;;;;;;;2084231;28;20427;-65
2022/06/10 01:14:04;;;;;;;7.40;6.38;;;;;;;;;;2085582;28;20037;-65
2022/06/10 01:15:29;;;;;;;14.55;10.30;;;;;;;;;;2084122;28;20126;-65
2022/06/10 01:17:08;;;;;;;10.93;9.65;;;;;;;;;;2083879;28;20033;-65
2022/06/10 01:18:38;;;;;;;11.40;9.15;;;;;;;;;;2059716;28;20105;-66
2022/06/10 01:20:10;;;;;;;13.23;10.98;;;;;;;;;;2085139;28;20017;-67
2022/06/10 01:21:46;;;;;;;16.45;11.30;;;;;;;;;;2084544;28;20041;-66
2022/06/10 01:23:24;;;;;;;19.42;13.77;;;;;;;;;;2081343;28;20112;-67
2022/06/10 01:25:03;;;;;;;21.00;14.48;;;;;;;;;;2082511;28;20064;-66
2022/06/10 01:26:25;;;;;;;28.23;17.38;;;;;;;;;;2060497;28;20026;-66
2022/06/10 01:27:59;;;;;;;20.77;15.45;;;;;;;;;;2083022;28;20451;-66
2022/06/10 01:29:36;;;;;;;22.60;15.18;;;;;;;;;;2083410;28;20042;-66
2022/06/10 01:31:05;;;;;;;21.75;15.45;;;;;;;;;;2083702;28;20503;-67
2022/06/10 01:32:38;;;;;;;22.38;14.88;;;;;;;;;;2083760;28;20028;-66
2022/06/10 01:33:57;;;;;;;19.00;14.48;;;;;;;;;;2084214;28;20547;-67
2022/06/10 01:35:26;;;;;;;20.63;14.50;;;;;;;;;;2083968;28;20492;-66
2022/06/10 01:37:08;;;;;;;17.73;13.18;;;;;;;;;;2084984;28;20026;-66
2022/06/10 01:38:40;;;;;;;14.52;10.50;;;;;;;;;;2081884;28;20029;-66
2022/06/10 01:40:23;;;;;;;14.93;10.18;;;;;;;;;;2083304;28;20022;-66
2022/06/10 01:41:50;;;;;;;12.40;8.38;;;;;;;;;;2082270;28;20145;-66
2022/06/10 01:43:28;;;;;;;8.77;7.88;;;;;;;;;;2084832;28;20407;-66
2022/06/10 01:44:50;;;;;;;10.15;9.13;;;;;;;;;;2085647;28;20041;-67
2022/06/10 01:46:13;;;;;;;16.15;10.98;;;;;;;;;;2084993;28;20045;-66
2022/06/10 01:47:35;;;;;;;14.93;11.00;;;;;;;;;;2079685;28;20037;-66
2022/06/10 01:49:21;;;;;;;15.25;10.90;;;;;;;;;;2082067;28;20029;-66
2022/06/10 01:50:44;;;;;;;21.33;13.00;;;;;;;;;;2083867;28;20407;-66
2022/06/10 01:52:06;;;;;;;13.43;9.73;;;;;;;;;;2085077;28;20025;-66
2022/06/10 01:53:37;;;;;;;13.82;9.77;;;;;;;;;;2079778;28;20520;-66
2022/06/10 01:55:02;;;;;;;14.07;9.80;;;;;;;;;;2081793;28;20025;-66
2022/06/10 01:56:25;;;;;;;14.07;9.77;;;;;;;;;;2084320;28;20029;-66
2022/06/10 01:57:44;;;;;;;;;;;;;;;;;;2083502;28;20017;-66
2022/06/10 01:59:20;;;;;;;18.50;12.57;;;;;;;;;;2081078;28;19913;-66
2022/06/10 02:00:41;;;;;;;14.27;11.23;;;;;;;;;;2083040;28;20120;-65
2022/06/10 02:02:04;;;;;;;14.15;11.15;;;;;;;;;;2085358;28;20120;-66
2022/06/10 02:03:32;;;;;;;19.92;11.75;;;;;;;;;;2080977;28;20025;-66
2022/06/10 02:05:09;;;;;;;16.35;11.27;;;;;;;;;;2074726;28;20018;-67
2022/06/10 02:06:32;;;;;;;17.80;10.95;;;;;;;;;;2082266;28;20058;-66
2022/06/10 02:08:00;;;;;;;13.65;10.43;;;;;;;;;;2083835;28;20490;-66
2022/06/10 02:09:22;;;;;;;12.63;9.13;;;;;;;;;;2084255;28;20037;-66
2022/06/10 02:10:44;;;;;;;14.57;9.00;;;;;;;;;;2082225;28;20026;-66
2022/06/10 02:12:08;;;;;;;8.95;7.00;;;;;;;;;;2079378;28;20030;-66
2022/06/10 02:13:30;;;;;;;7.95;6.70;;;;;;;;;;2081369;28;20037;-67
2022/06/10 02:14:53;;;;;;;9.50;7.47;;;;;;;;;;2084639;28;20021;-66
2022/06/10 02:16:14;;;;;;;13.00;7.75;;;;;;;;;;2081436;28;20026;-66
2022/06/10 02:17:36;;;;;;;10.15;6.85;;;;;;;;;;2083380;28;20515;-66
2022/06/10 02:18:59;;;;;;;10.98;8.55;;;;;;;;;;2081504;28;20037;-66
2022/06/10 02:20:22;;;;;;;13.48;10.05;;;;;;;;;;2085254;28;20033;-66
2022/06/10 02:21:47;;;;;;;9.65;8.13;;;;;;;;;;2084713;28;20115;-66
2022/06/10 02:23:06;;;;;;;11.68;9.25;;;;;;;;;;2082730;28;20888;-66
2022/06/10 02:24:25;;;;;;;21.90;14.93;;;;;;;;;;2083512;28;20488;-66
2022/06/10 02:25:47;;;;;;;18.20;11.00;;;;;;;;;;2081935;28;20033;-66
2022/06/10 02:27:18;;;;;;;20.77;13.93;;;;;;;;;;2080597;28;20026;-66
2022/06/10 02:28:41;;;;;;;16.05;12.25;;;;;;;;;;2081460;28;20026;-66
2022/06/10 02:30:09;;;;;;;16.98;10.52;;;;;;;;;;2083778;28;20041;-66
2022/06/10 02:31:32;;;;;;;15.15;11.25;;;;;;;;;;2084888;28;20025;-66
2022/06/10 02:32:51;;;;;;;25.98;17.15;;;;;;;;;;2085123;28;20029;-66
2022/06/10 02:34:11;;;;;;;17.33;10.32;;;;;;;;;;2084106;28;20030;-66
2022/06/10 02:35:36;;;;;;;18.60;12.05;;;;;;;;;;2082630;28;20025;-66
2022/06/10 02:37:02;;;;;;;14.45;10.30;;;;;;;;;;2082977;28;20466;-66
2022/06/10 02:38:35;;;;;;;10.45;8.50;;;;;;;;;;2081040;28;20029;-67
2022/06/10 02:39:57;;;;;;;12.52;8.68;;;;;;;;;;2085138;28;20041;-66
2022/06/10 02:41:28;;;;;;;11.27;8.27;;;;;;;;;;2084142;28;20041;-66
2022/06/10 02:43:06;;;;;;;18.42;8.55;;;;;;;;;;2084568;28;20061;-66
2022/06/10 02:44:35;;;;;;;11.55;8.52;;;;;;;;;;2082421;28;20060;-66
2022/06/10 02:46:10;;;;;;;13.45;8.90;;;;;;;;;;2080629;28;20028;-66
2022/06/10 02:47:35;;;;;;;10.57;8.82;;;;;;;;;;2081924;28;20033;-66
2022/06/10 02:49:00;;;;;;;18.23;8.70;;;;;;;;;;2082196;28;20033;-67
2022/06/10 02:50:19;;;;;;;15.15;9.10;;;;;;;;;;2080721;28;20479;-66
2022/06/10 02:51:38;;;;;;;13.05;8.32;;;;;;;;;;2081861;28;20033;-66
2022/06/10 02:52:57;;;;;;;11.40;7.90;;;;;;;;;;2080275;28;20100;-66
2022/06/10 02:54:25;;;;;;;10.38;6.95;;;;;;;;;;2082623;28;20248;-66
2022/06/10 02:55:44;;;;;;;8.30;5.65;;;;;;;;;;2083971;28;20479;-66
2022/06/10 03:02:29;;;;;;;7.70;6.05;;;;;;;;;;2084412;28;20459;-65
2022/06/10 03:04:07;;;;;;;7.35;6.07;;;;;;;;;;2082013;28;20480;-66
2022/06/10 03:05:44;;;;;;;16.45;10.10;;;;;;;;;;2082732;28;20446;-65
2022/06/10 03:07:21;;;;;;;15.18;11.88;;;;;;;;;;2084796;28;20483;-65
2022/06/10 03:08:44;;;;;;;21.20;15.95;;;;;;;;;;2082614;28;20025;-65
2022/06/10 03:10:18;;;;;;;19.45;14.07;;;;;;;;;;2080061;28;20045;-66
2022/06/10 03:11:36;;;;;;;16.83;12.50;;;;;;;;;;2083641;28;20025;-66
2022/06/10 03:13:08;;;;;;;16.95;12.32;;;;;;;;;;2082018;28;20029;-65
2022/06/10 03:14:29;;;;;;;14.20;10.35;;;;;;;;;;2081623;28;20116;-65
2022/06/10 03:16:05;;;;;;;11.80;9.98;;;;;;;;;;2080563;28;20352;-65
2022/06/10 03:17:28;;;;;;;10.57;7.97;;;;;;;;;;2082862;28;20500;-66
2022/06/10 03:19:10;;;;;;;9.82;7.40;;;;;;;;;;2083537;28;20448;-65
2022/06/10 03:20:49;;;;;;;7.90;7.07;;;;;;;;;;2057276;28;20030;-65
2022/06/10 03:22:20;;;;;;;9.88;6.70;;;;;;;;;;2083850;28;20073;-66
2022/06/10 03:23:53;;;;;;;9.55;6.50;;;;;;;;;;2082147;28;20037;-65
2022/06/10 03:25:15;;;;;;;6.43;4.90;;;;;;;;;;2081990;28;20498;-65
2022/06/10 03:26:45;;;;;;;5.53;4.78;;;;;;;;;;2083612;28;20041;-65
2022/06/10 03:28:13;;;;;;;4.68;4.15;;;;;;;;;;2084214;28;20487;-65
2022/06/10 03:29:32;;;;;;;4.13;3.80;;;;;;;;;;2083567;28;20065;-66
2022/06/10 03:30:54;;;;;;;5.93;4.00;;;;;;;;;;2081138;28;20057;-66
2022/06/10 03:32:31;;;;;;;7.28;4.38;;;;;;;;;;2083012;28;20052;-66
2022/06/10 03:33:53;;;;;;;4.90;4.43;;;;;;;;;;2083236;28;20022;-66
2022/06/10 03:35:17;;;;;;;5.40;4.68;;;;;;;;;;2083339;28;20017;-66
2022/06/10 03:36:36;;;;;;;7.43;5.50;;;;;;;;;;2083035;28;20025;-66
2022/06/10 03:37:55;;;;;;;7.00;4.93;;;;;;;;;;2081649;28;20030;-66
2022/06/10 03:39:14;;;;;;;6.78;5.80;;;;;;;;;;2077528;28;20037;-66
2022/06/10 03:40:33;;;;;;;6.15;5.60;;;;;;;;;;2079940;28;20033;-65
2022/06/10 03:41:57;;;;;;;6.55;5.72;;;;;;;;;;2079935;28;20531;-65
2022/06/10 03:43:15;;;;;;;6.18;5.68;;;;;;;;;;2084188;28;20029;-65
2022/06/10 03:44:34;;;;;;;5.68;5.15;;;;;;;;;;2081002;28;20037;-65
2022/06/10 03:45:59;;;;;;;6.30;5.18;;;;;;;;;;2081372;28;20029;-65
2022/06/10 03:47:24;;;;;;;5.90;4.95;;;;;;;;;;2084590;28;20101;-65
2022/06/10 03:48:44;;;;;;;4.22;3.83;;;;;;;;;;2083899;28;20029;-65
2022/06/10 03:50:09;;;;;;;4.60;4.20;;;;;;;;;;2082307;28;20426;-66
2022/06/10 03:51:28;;;;;;;5.35;3.28;;;;;;;;;;2083537;28;20483;-65
2022/06/10 03:52:46;;;;;;;4.05;3.30;;;;;;;;;;2083267;28;20045;-65
2022/06/10 03:54:06;;;;;;;5.65;2.80;;;;;;;;;;2083218;28;20033;-65
2022/06/10 03:55:25;;;;;;;8.07;2.63;;;;;;;;;;2083489;28;20029;-66
2022/06/10 03:56:44;;;;;;;3.15;2.75;;;;;;;;;;2083751;28;20025;-66
2022/06/10 03:58:03;;;;;;;6.72;2.60;;;;;;;;;;2079620;28;20029;-66
2022/06/10 03:59:22;;;;;;;3.08;2.78;;;;;;;;;;2082974;28;20025;-65
2022/06/10 04:00:42;;;;;;;3.70;2.55;;;;;;;;;;2081191;28;20033;-65
2022/06/10 04:02:01;;;;;;;4.32;2.55;;;;;;;;;;2080774;28;20120;-66
2022/06/10 04:03:20;;;;;;;3.20;2.30;;;;;;;;;;2082890;28;20025;-65
2022/06/10 04:04:39;;;;;;;3.80;2.60;;;;;;;;;;2083670;28;20037;-66
2022/06/10 04:05:58;;;;;;;7.70;2.65;;;;;;;;;;2079136;28;20033;-64
2022/06/10 04:07:18;;;;;;;3.88;2.30;;;;;;;;;;2079676;28;20038;-65
2022/06/10 04:08:36;;;;;;;5.30;2.83;;;;;;;;;;2082630;28;20033;-65
2022/06/10 04:09:55;;;;;;;5.82;2.22;;;;;;;;;;2083166;28;20033;-65
2022/06/10 04:11:14;;;;;;;5.20;2.50;;;;;;;;;;2080555;28;20033;-65
2022/06/10 04:12:33;;;;;;;3.92;2.30;;;;;;;;;;2083057;28;20119;-66
2022/06/10 04:13:52;;;;;;;3.45;2.25;;;;;;;;;;2084371;28;20021;-66
2022/06/10 04:15:14;;;;;;;4.40;2.15;;;;;;;;;;2080648;28;20021;-66
2022/06/10 04:16:33;;;;;;;8.10;2.30;;;;;;;;;;2081606;28;20042;-67
2022/06/10 04:17:54;;;;;;;7.28;2.55;;;;;;;;;;2080769;28;20442;-66
2022/06/10 04:19:13;;;;;;;4.75;2.08;;;;;;;;;;2083273;28;20403;-66
2022/06/10 04:20:34;;;;;;;4.13;2.45;;;;;;;;;;2083126;28;20033;-66
2022/06/10 04:21:54;;;;;;;7.28;2.40;;;;;;;;;;2082739;28;20037;-66
2022/06/10 04:23:14;;;;;;;4.57;2.60;;;;;;;;;;2081246;28;20026;-67
2022/06/10 04:24:32;;;;;;;2.72;2.08;;;;;;;;;;2084820;28;20533;-66
2022/06/10 04:25:51;;;;;;;4.93;2.05;;;;;;;;;;2082196;28;20037;-67
2022/06/10 04:27:10;;;;;;;2.25;2.10;;;;;;;;;;2082414;28;20033;-67
2022/06/10 04:28:30;;;;;;;3.03;2.17;;;;;;;;;;2083309;28;20041;-66
2022/06/10 04:29:49;;;;;;;5.18;2.05;;;;;;;;;;2082029;28;20061;-66
2022/06/10 04:31:08;;;;;;;3.30;2.33;;;;;;;;;;2077206;28;20476;-66
2022/06/10 04:32:27;;;;;;;2.35;2.10;;;;;;;;;;2080137;28;21339;-67
2022/06/10 04:33:45;;;;;;;2.63;1.70;;;;;;;;;;2082514;28;20026;-66
2022/06/10 04:35:04;;;;;;;2.92;2.03;;;;;;;;;;2083442;28;20468;-67
2022/06/10 04:36:23;;;;;;;2.30;2.10;;;;;;;;;;2082849;28;20030;-66
2022/06/10 04:37:44;;;;;;;2.25;2.05;;;;;;;;;;2083013;28;20036;-66
2022/06/10 04:39:03;;;;;;;1.80;1.70;;;;;;;;;;2083487;28;20376;-66
2022/06/10 04:40:24;;;;;;;5.05;2.15;;;;;;;;;;2079305;28;20034;-65
2022/06/10 04:41:42;;;;;;;2.38;1.67;;;;;;;;;;2081739;28;20491;-66
2022/06/10 04:43:02;;;;;;;3.45;2.30;;;;;;;;;;2083324;28;20029;-66
2022/06/10 04:44:21;;;;;;;2.70;1.98;;;;;;;;;;2084301;28;20026;-66
2022/06/10 04:45:43;;;;;;;2.03;1.92;;;;;;;;;;2081654;28;20038;-65
2022/06/10 04:47:02;;;;;;;4.10;2.10;;;;;;;;;;2080434;28;20033;-66
2022/06/10 04:48:21;;;;;;;2.45;2.13;;;;;;;;;;2080602;28;20814;-66
2022/06/10 04:49:40;;;;;;;2.55;1.75;;;;;;;;;;2077217;28;20045;-66
2022/06/10 04:51:00;;;;;;;3.55;2.10;;;;;;;;;;2080625;28;20037;-66
2022/06/10 04:52:18;;;;;;;2.45;2.00;;;;;;;;;;2079703;28;20038;-65
2022/06/10 04:53:38;;;;;;;1.80;1.63;;;;;;;;;;2082032;28;20037;-66
2022/06/10 04:54:56;;;;;;;2.15;1.90;;;;;;;;;;2080199;28;20026;-65
2022/06/10 04:56:15;;;;;;;2.90;1.98;;;;;;;;;;2077730;28;20425;-66
2022/06/10 04:57:35;;;;;;;2.30;2.10;;;;;;;;;;2083368;28;20036;-68
2022/06/10 04:58:54;;;;;;;3.15;2.35;;;;;;;;;;2080708;28;20105;-68
2022/06/10 05:00:17;;;;;;;2.20;1.80;;;;;;;;;;2075995;28;20499;-67
2022/06/10 05:01:36;;;;;;;1.90;1.80;;;;;;;;;;2079730;28;20041;-67
2022/06/10 05:02:55;;;;;;;3.53;1.92;;;;;;;;;;2076882;28;20033;-66
2022/06/10 05:04:14;;;;;;;1.90;1.80;;;;;;;;;;2084025;28;20422;-65
2022/06/10 05:05:34;;;;;;;4.43;2.15;;;;;;;;;;2083252;28;20471;-65
2022/06/10 05:06:52;;;;;;;2.00;1.90;;;;;;;;;;2083940;28;20041;-66
2022/06/10 05:08:13;;;;;;;3.30;2.10;;;;;;;;;;2083724;28;20403;-65
2022/06/10 05:09:32;;;;;;;3.25;1.95;;;;;;;;;;2085431;28;20037;-65
2022/06/10 05:10:51;;;;;;;3.92;2.25;;;;;;;;;;2083943;28;20021;-65
2022/06/10 05:12:10;;;;;;;2.85;1.63;;;;;;;;;;2084035;28;20112;-65
2022/06/10 05:13:29;;;;;;;4.63;2.03;;;;;;;;;;2084150;28;20021;-64
2022/06/10 05:14:47;;;;;;;2.83;2.03;;;;;;;;;;2081807;28;20029;-66
2022/06/10 05:16:06;;;;;;;2.53;1.70;;;;;;;;;;2081073;28;21511;-65
2022/06/10 05:17:25;;;;;;;2.53;1.65;;;;;;;;;;2084913;28;20503;-65
2022/06/10 05:18:44;;;;;;;1.90;1.80;;;;;;;;;;2082563;28;20028;-66
2022/06/10 05:20:03;;;;;;;2.55;1.90;;;;;;;;;;2078526;28;20072;-66
2022/06/10 05:21:22;;;;;;;2.65;2.08;;;;;;;;;;2082139;28;20492;-66
2022/06/10 05:22:41;;;;;;;2.45;2.25;;;;;;;;;;2082753;28;20065;-65
2022/06/10 05:24:00;;;;;;;1.70;1.60;;;;;;;;;;2080745;28;20063;-66
2022/06/10 05:25:19;;;;;;;2.28;1.95;;;;;;;;;;2079911;28;20052;-65
2022/06/10 05:26:38;;;;;;;3.10;2.20;;;;;;;;;;2082113;28;20037;-66
2022/06/10 05:27:57;;;;;;;4.07;1.95;;;;;;;;;;2084739;28;20021;-66
2022/06/10 05:29:16;;;;;;;2.20;2.00;;;;;;;;;;2082874;28;20037;-66
2022/06/10 05:30:35;;;;;;;3.92;1.80;;;;;;;;;;2079228;28;20034;-66
2022/06/10 05:31:54;;;;;;;3.72;2.03;;;;;;;;;;2082179;28;20022;-66
2022/06/10 05:33:13;;;;;;;3.10;2.00;;;;;;;;;;2079884;28;20029;-65
2022/06/10 05:34:44;;;;;;;3.97;2.05;;;;;;;;;;2079923;28;20115;-66
2022/06/10 05:36:04;;;;;;;4.90;2.10;;;;;;;;;;2083615;28;20034;-66
2022/06/10 05:37:24;;;;;;;2.30;2.10;;;;;;;;;;2080524;28;20488;-65
2022/06/10 05:38:44;;;;;;;3.10;2.08;;;;;;;;;;2084833;28;20137;-66
2022/06/10 05:40:03;;;;;;;4.10;2.50;;;;;;;;;;2077862;28;20037;-66
2022/06/10 05:43:00;;;;;;;3.17;2.38;;;;;;;;;;2074643;28;20041;-66
2022/06/10 05:44:20;;;;;;;2.50;2.30;;;;;;;;;;2076417;28;20104;-66
2022/06/10 05:45:40;;;;;;;3.72;2.22;;;;;;;;;;2077890;28;20033;-66
2022/06/10 05:47:00;;;;;;;2.20;2.10;;;;;;;;;;2077033;28;20109;-66
2022/06/10 05:48:19;;;;;;;2.30;2.20;;;;;;;;;;2082125;28;20033;-66
2022/06/10 05:49:41;;;;;;;2.33;2.15;;;;;;;;;;2081273;28;20037;-67
2022/06/10 05:51:00;;;;;;;2.50;2.30;;;;;;;;;;2078466;28;20034;-66
2022/06/10 05:52:20;;;;;;;6.85;2.28;;;;;;;;;;2078962;28;20052;-66
2022/06/10 05:53:39;;;;;;;3.72;2.38;;;;;;;;;;2075985;28;20022;-66
2022/06/10 05:55:00;;;;;;;2.78;2.55;;;;;;;;;;2077112;28;20167;-68
2022/06/10 05:56:19;;;;;;;4.25;2.50;;;;;;;;;;2081075;28;20117;-65
2022/06/10 05:57:39;;;;;;;5.75;2.20;;;;;;;;;;2081993;28;20132;-66
2022/06/10 05:58:58;;;;;;;5.32;2.00;;;;;;;;;;2082569;28;20100;-67
2022/06/10 06:00:21;;;;;;;6.10;1.92;;;;;;;;;;2077574;28;20392;-66
2022/06/10 06:01:40;;;;;;;3.78;2.28;;;;;;;;;;2074113;28;20026;-67
2022/06/10 06:02:59;;;;;;;1.75;1.55;;;;;;;;;;2076728;28;20041;-67
2022/06/10 06:04:18;;;;;;;2.67;2.22;;;;;;;;;;2079945;28;20025;-67
2022/06/10 06:05:37;;;;;;;5.30;2.05;;;;;;;;;;2077975;28;20037;-67
2022/06/10 06:06:56;;;;;;;2.20;2.05;;;;;;;;;;2080301;28;20061;-66
2022/06/10 06:08:16;;;;;;;6.88;2.15;;;;;;;;;;2084981;28;20038;-66
2022/06/10 06:09:38;;;;;;;2.88;2.22;;;;;;;;;;2081766;28;20672;-66
2022/06/10 06:10:57;;;;;;;4.22;2.67;;;;;;;;;;2084889;28;20022;-65
2022/06/10 06:12:16;;;;;;;3.15;2.40;;;;;;;;;;2079638;28;20043;-65
2022/06/10 06:13:35;;;;;;;5.43;2.45;;;;;;;;;;2082958;28;20041;-66
2022/06/10 06:14:53;;;;;;;4.25;2.15;;;;;;;;;;2084478;28;20037;-66
2022/06/10 06:16:14;;;;;;;3.83;2.22;;;;;;;;;;2081269;28;20034;-66
2022/06/10 06:17:33;;;;;;;2.88;2.60;;;;;;;;;;2081400;28;20033;-67
2022/06/10 06:18:52;;;;;;;3.05;2.40;;;;;;;;;;2079249;28;20100;-66
2022/06/10 06:20:13;;;;;;;5.50;2.60;;;;;;;;;;2081838;28;20108;-66
2022/06/10 06:21:33;;;;;;;5.70;2.60;;;;;;;;;;2083858;28;20046;-66
2022/06/10 06:22:53;;;;;;;3.05;2.80;;;;;;;;;;2081809;28;20029;-66
2022/06/10 06:24:12;;;;;;;2.72;2.45;;;;;;;;;;2083837;28;20025;-66
2022/06/10 06:25:32;;;;;;;6.32;2.47;;;;;;;;;;2083066;28;20073;-66
2022/06/10 06:26:51;;;;;;;6.80;2.28;;;;;;;;;;2083764;28;20041;-66
2022/06/10 06:28:09;;;;;;;4.28;1.90;;;;;;;;;;2083448;28;20041;-66
2022/06/10 06:29:29;;;;;;;6.13;2.47;;;;;;;;;;2078470;28;20506;-66
2022/06/10 06:30:48;;;;;;;2.60;2.40;;;;;;;;;;2082860;28;20104;-66
2022/06/10 06:32:07;;;;;;;3.78;2.50;;;;;;;;;;2081652;28;20053;-66
2022/06/10 06:33:26;;;;;;;2.42;2.17;;;;;;;;;;2083564;28;20073;-66
2022/06/10 06:34:45;;;;;;;2.33;2.13;;;;;;;;;;2084710;28;20025;-66
2022/06/10 06:36:04;;;;;;;3.47;2.05;;;;;;;;;;2084499;28;20053;-66
2022/06/10 06:37:23;;;;;;;2.35;2.05;;;;;;;;;;2083930;28;20033;-67
2022/06/10 06:38:42;;;;;;;3.05;2.25;;;;;;;;;;2082204;28;20033;-66
2022/06/10 06:40:01;;;;;;;5.82;2.25;;;;;;;;;;2081635;28;20061;-66
2022/06/10 06:41:27;;;;;;;4.53;2.10;;;;;;;;;;2084948;28;20454;-68
2022/06/10 06:42:48;;;;;;;3.55;2.33;;;;;;;;;;2083073;28;20034;-67
2022/06/10 06:44:10;;;;;;;2.75;1.85;;;;;;;;;;2077274;28;20507;-67
2022/06/10 06:45:36;;;;;;;2.80;2.47;;;;;;;;;;2079139;28;20037;-67
2022/06/10 06:46:56;;;;;;;2.30;2.10;;;;;;;;;;2083247;28;20034;-67
2022/06/10 06:48:15;;;;;;;2.53;2.33;;;;;;;;;;2078217;28;20046;-67
2022/06/10 06:49:34;;;;;;;3.75;2.13;;;;;;;;;;2082170;28;20056;-67
2022/06/10 06:50:53;;;;;;;3.83;2.15;;;;;;;;;;2084345;28;20025;-67
2022/06/10 06:52:12;;;;;;;4.03;2.20;;;;;;;;;;2081571;28;20029;-67
2022/06/10 06:53:33;;;;;;;3.97;1.92;;;;;;;;;;2082907;28;20029;-67
2022/06/10 06:54:52;;;;;;;2.60;1.90;;;;;;;;;;2082675;28;20025;-67
2022/06/10 06:56:10;;;;;;;4.82;1.90;;;;;;;;;;2081973;28;20030;-67
2022/06/10 06:57:29;;;;;;;2.28;1.77;;;;;;;;;;2081197;28;20041;-67
2022/06/10 06:58:48;;;;;;;3.75;1.90;;;;;;;;;;2080643;28;20037;-68
2022/06/10 07:00:08;;;;;;;3.40;2.03;;;;;;;;;;2083468;28;20037;-65
2022/06/10 07:01:27;;;;;;;3.20;1.73;;;;;;;;;;2082762;28;20029;-67
2022/06/10 07:02:46;;;;;;;1.83;1.73;;;;;;;;;;2083185;28;20060;-67
2022/06/10 07:04:06;;;;;;;3.30;1.92;;;;;;;;;;2080999;28;20518;-67
2022/06/10 07:05:25;;;;;;;2.70;2.00;;;;;;;;;;2081827;28;20095;-67
2022/06/10 07:06:44;;;;;;;3.85;2.03;;;;;;;;;;2079345;28;20033;-67
2022/06/10 07:08:03;;;;;;;4.75;1.80;;;;;;;;;;2082313;28;20053;-67
2022/06/10 07:09:22;;;;;;;3.33;1.98;;;;;;;;;;2085030;28;20475;-67
2022/06/10 07:10:41;;;;;;;2.35;2.00;;;;;;;;;;2081831;28;20033;-67
2022/06/10 07:12:00;;;;;;;2.97;2.00;;;;;;;;;;2083860;28;20108;-67
2022/06/10 07:13:19;;;;;;;3.00;2.00;;;;;;;;;;2083509;28;20033;-66
2022/06/10 07:14:38;;;;;;;2.35;2.13;;;;;;;;;;2081796;28;20025;-67
2022/06/10 07:15:58;;;;;;;4.15;2.60;;;;;;;;;;2083418;28;20026;-67
2022/06/10 07:17:17;;;;;;;4.15;3.05;;;;;;;;;;2083164;28;20025;-68
2022/06/10 07:18:36;;;;;;;6.57;2.72;;;;;;;;;;2083474;28;20394;-67
2022/06/10 07:19:58;;;;;;;3.10;2.83;;;;;;;;;;2083113;28;20037;-67
2022/06/10 07:21:17;;;;;;;5.38;2.83;;;;;;;;;;2082273;28;20705;-67
2022/06/10 07:22:36;;;;;;;5.10;2.67;;;;;;;;;;2083817;28;20041;-67
2022/06/10 07:23:55;;;;;;;5.13;2.88;;;;;;;;;;2082516;28;20033;-67
2022/06/10 07:25:14;;;;;;;5.38;2.80;;;;;;;;;;2082291;28;20514;-67
2022/06/10 07:26:33;;;;;;;7.72;3.10;;;;;;;;;;2079006;28;20033;-67
2022/06/10 07:27:55;;;;;;;4.70;2.65;;;;;;;;;;2079361;28;20026;-67
2022/06/10 07:29:14;;;;;;;4.72;2.70;;;;;;;;;;2082312;28;20034;-66
2022/06/10 07:30:34;;;;;;;4.10;3.08;;;;;;;;;;2082757;28;20025;-67
2022/06/10 07:31:53;;;;;;;8.18;3.00;;;;;;;;;;2079780;28;20517;-67
2022/06/10 07:33:13;;;;;;;4.97;2.83;;;;;;;;;;2083791;28;20101;-67
2022/06/10 07:34:32;;;;;;;3.78;2.80;;;;;;;;;;2082392;28;20033;-67
2022/06/10 07:35:51;;;;;;;4.32;3.30;;;;;;;;;;2083118;28;20359;-67
2022/06/10 07:37:09;;;;;;;6.97;2.75;;;;;;;;;;2084246;28;20491;-67
2022/06/10 07:38:28;;;;;;;3.75;2.47;;;;;;;;;;2084087;28;20135;-67
2022/06/10 07:39:47;;;;;;;4.03;2.67;;;;;;;;;;2080853;28;20112;-67
2022/06/10 07:42:44;;;;;;;2.67;2.47;;;;;;;;;;2082700;28;20029;-68
2022/06/10 07:44:03;;;;;;;3.78;2.70;;;;;;;;;;2082910;28;20100;-67
2022/06/10 07:45:22;;;;;;;3.58;2.70;;;;;;;;;;2084099;28;20116;-67
2022/06/10 07:46:40;;;;;;;7.82;3.58;;;;;;;;;;2083419;28;20029;-67
2022/06/10 07:47:59;;;;;;;5.07;2.63;;;;;;;;;;2084182;28;20025;-67
2022/06/10 07:49:20;;;;;;;6.40;2.65;;;;;;;;;;2083076;28;20506;-67
2022/06/10 07:50:41;;;;;;;6.43;2.63;;;;;;;;;;2082433;28;20063;-67
2022/06/10 07:52:00;;;;;;;6.63;2.85;;;;;;;;;;2084047;28;20444;-68
2022/06/10 07:53:19;;;;;;;4.60;2.60;;;;;;;;;;2084151;28;20061;-67
2022/06/10 07:54:38;;;;;;;2.58;2.33;;;;;;;;;;2082849;28;20494;-67
2022/06/10 07:55:57;;;;;;;4.97;2.28;;;;;;;;;;2083622;28;20030;-67
2022/06/10 07:57:16;;;;;;;4.95;2.58;;;;;;;;;;2083964;28;20689;-64
2022/06/10 07:58:35;;;;;;;2.70;2.50;;;;;;;;;;2082587;28;20076;-67
2022/06/10 07:59:54;;;;;;;2.92;2.50;;;;;;;;;;2080448;28;20065;-67
2022/06/10 08:01:13;;;;;;;6.68;2.08;;;;;;;;;;2083899;28;20116;-68
2022/06/10 08:02:32;;;;;;;7.63;2.42;;;;;;;;;;2083407;28;20029;-67
2022/06/10 08:03:52;;;;;;;3.10;2.13;;;;;;;;;;2082158;28;20033;-67
2022/06/10 08:05:13;;;;;;;5.05;2.30;;;;;;;;;;2083427;28;20311;-67
2022/06/10 08:06:32;;;;;;;3.03;2.28;;;;;;;;;;2083940;28;20052;-67
2022/06/10 08:07:51;;;;;;;3.47;2.42;;;;;;;;;;2083867;28;20037;-67
2022/06/10 08:09:10;;;;;;;3.97;2.67;;;;;;;;;;2085406;28;20527;-67
2022/06/10 08:10:31;;;;;;;5.03;2.40;;;;;;;;;;2081754;28;20475;-67
2022/06/10 08:11:50;;;;;;;4.05;2.35;;;;;;;;;;2083598;28;20045;-67
2022/06/10 08:13:09;;;;;;;5.50;2.33;;;;;;;;;;2083710;28;20399;-67
2022/06/10 08:14:28;;;;;;;3.10;2.42;;;;;;;;;;2082230;28;20380;-67
2022/06/10 08:15:48;;;;;;;4.35;2.30;;;;;;;;;;2083210;28;20725;-67
2022/06/10 08:17:07;;;;;;;4.60;2.00;;;;;;;;;;2083404;28;20057;-67